X  Zavřít Letištní data METAR     LKTB Brno-Tuřany Airport
Teplota
1°C Teplota
-3°C Rosný bod
75% Vlhkost



Vítr
14 KM/H
9 MPH
4 M/S
8 KTS



240°
ZJZ
Aktuální stav

Zataženo Zataženo
Tlak 1022.92 (hPa) - 30.21 (inHg)
Viditelnost 6.2 (mil) - 10 (km)
Letiště
Kód letiště LKTB

Umístění: Brno-Tuřany Airport
Vzdálenost: 25 (km)

Metar:
LKTB 270800Z 24008KT 9999 OVC017 01/M03 Q1023 NOSIG

Čas: 27-01-2022 09:00 CET